sensor_id;sensor_type;location;lat;lon;timestamp;temperature;humidity
64549;DHT22;49838;51.798;10.954;2023-08-12T00:00:04;27.90;30.00
64549;DHT22;49838;51.798;10.954;2023-08-12T00:02:37;27.90;30.00
64549;DHT22;49838;51.798;10.954;2023-08-12T00:05:06;27.90;30.00
64549;DHT22;49838;51.798;10.954;2023-08-12T00:07:35;27.90;30.00
64549;DHT22;49838;51.798;10.954;2023-08-12T00:10:03;27.90;30.00
64549;DHT22;49838;51.798;10.954;2023-08-12T00:12:32;27.90;30.00
64549;DHT22;49838;51.798;10.954;2023-08-12T00:15:00;27.90;30.00
64549;DHT22;49838;51.798;10.954;2023-08-12T00:17:27;27.90;30.20
64549;DHT22;49838;51.798;10.954;2023-08-12T00:19:55;27.90;30.30
64549;DHT22;49838;51.798;10.954;2023-08-12T00:22:24;27.90;30.40
64549;DHT22;49838;51.798;10.954;2023-08-12T00:24:52;27.90;30.70
64549;DHT22;49838;51.798;10.954;2023-08-12T00:27:19;27.90;30.70
64549;DHT22;49838;51.798;10.954;2023-08-12T00:29:46;28.00;31.10
64549;DHT22;49838;51.798;10.954;2023-08-12T00:32:14;28.00;31.00
64549;DHT22;49838;51.798;10.954;2023-08-12T00:34:41;28.00;31.10
64549;DHT22;49838;51.798;10.954;2023-08-12T00:37:09;28.00;31.10
64549;DHT22;49838;51.798;10.954;2023-08-12T00:39:37;28.00;31.00
64549;DHT22;49838;51.798;10.954;2023-08-12T00:42:04;28.00;31.70
64549;DHT22;49838;51.798;10.954;2023-08-12T00:44:32;28.10;31.10
64549;DHT22;49838;51.798;10.954;2023-08-12T00:47:02;28.10;31.00
64549;DHT22;49838;51.798;10.954;2023-08-12T00:49:30;28.10;30.90
64549;DHT22;49838;51.798;10.954;2023-08-12T00:51:58;28.20;30.90
64549;DHT22;49838;51.798;10.954;2023-08-12T00:54:26;28.20;30.90
64549;DHT22;49838;51.798;10.954;2023-08-12T00:56:56;28.20;30.80
64549;DHT22;49838;51.798;10.954;2023-08-12T00:59:24;28.30;30.80
64549;DHT22;49838;51.798;10.954;2023-08-12T01:01:52;28.30;30.70
64549;DHT22;49838;51.798;10.954;2023-08-12T01:04:19;28.40;30.80
64549;DHT22;49838;51.798;10.954;2023-08-12T01:06:47;28.40;30.70
64549;DHT22;49838;51.798;10.954;2023-08-12T01:09:14;28.40;30.60
64549;DHT22;49838;51.798;10.954;2023-08-12T01:11:47;28.50;30.70
64549;DHT22;49838;51.798;10.954;2023-08-12T01:14:22;28.50;30.70
64549;DHT22;49838;51.798;10.954;2023-08-12T01:16:53;28.50;30.80
64549;DHT22;49838;51.798;10.954;2023-08-12T01:19:29;28.50;30.90
64549;DHT22;49838;51.798;10.954;2023-08-12T01:21:59;28.40;30.90
64549;DHT22;49838;51.798;10.954;2023-08-12T01:24:34;28.40;30.80
64549;DHT22;49838;51.798;10.954;2023-08-12T01:27:02;28.40;30.80
64549;DHT22;49838;51.798;10.954;2023-08-12T01:29:30;28.40;30.80
64549;DHT22;49838;51.798;10.954;2023-08-12T01:32:00;28.40;30.90
64549;DHT22;49838;51.798;10.954;2023-08-12T01:34:36;28.30;30.90
64549;DHT22;49838;51.798;10.954;2023-08-12T01:37:10;28.30;31.10
64549;DHT22;49838;51.798;10.954;2023-08-12T01:39:42;28.20;31.00
64549;DHT22;49838;51.798;10.954;2023-08-12T01:42:12;28.30;30.90
64549;DHT22;49838;51.798;10.954;2023-08-12T01:44:40;28.30;30.90
64549;DHT22;49838;51.798;10.954;2023-08-12T01:47:08;28.20;30.90
64549;DHT22;49838;51.798;10.954;2023-08-12T01:49:36;28.20;30.90
64549;DHT22;49838;51.798;10.954;2023-08-12T01:52:03;28.20;30.90
64549;DHT22;49838;51.798;10.954;2023-08-12T01:54:31;28.20;30.90
64549;DHT22;49838;51.798;10.954;2023-08-12T01:57:02;28.20;31.00
64549;DHT22;49838;51.798;10.954;2023-08-12T01:59:31;28.20;30.90
64549;DHT22;49838;51.798;10.954;2023-08-12T02:01:58;28.20;30.90
64549;DHT22;49838;51.798;10.954;2023-08-12T02:04:26;28.20;30.80
64549;DHT22;49838;51.798;10.954;2023-08-12T02:06:54;28.20;30.80
64549;DHT22;49838;51.798;10.954;2023-08-12T02:09:21;28.20;30.90
64549;DHT22;49838;51.798;10.954;2023-08-12T02:11:49;28.10;30.80
64549;DHT22;49838;51.798;10.954;2023-08-12T02:14:18;28.00;30.80
64549;DHT22;49838;51.798;10.954;2023-08-12T02:16:45;28.00;30.90
64549;DHT22;49838;51.798;10.954;2023-08-12T02:19:13;27.90;31.00
64549;DHT22;49838;51.798;10.954;2023-08-12T02:21:40;27.90;30.90
64549;DHT22;49838;51.798;10.954;2023-08-12T02:24:08;27.90;30.80
64549;DHT22;49838;51.798;10.954;2023-08-12T02:26:36;27.80;30.80
64549;DHT22;49838;51.798;10.954;2023-08-12T02:29:04;27.70;30.80
64549;DHT22;49838;51.798;10.954;2023-08-12T02:31:32;27.70;31.00
64549;DHT22;49838;51.798;10.954;2023-08-12T02:34:00;27.60;31.10
64549;DHT22;49838;51.798;10.954;2023-08-12T02:36:27;27.60;31.10
64549;DHT22;49838;51.798;10.954;2023-08-12T02:38:54;27.50;31.40
64549;DHT22;49838;51.798;10.954;2023-08-12T02:41:22;27.40;31.30
64549;DHT22;49838;51.798;10.954;2023-08-12T02:43:49;27.40;31.30
64549;DHT22;49838;51.798;10.954;2023-08-12T02:46:16;27.30;31.30
64549;DHT22;49838;51.798;10.954;2023-08-12T02:48:45;27.30;31.30
64549;DHT22;49838;51.798;10.954;2023-08-12T02:51:14;27.30;31.00
64549;DHT22;49838;51.798;10.954;2023-08-12T02:53:41;27.20;31.00
64549;DHT22;49838;51.798;10.954;2023-08-12T02:56:09;27.20;31.00
64549;DHT22;49838;51.798;10.954;2023-08-12T02:58:36;27.20;31.00
64549;DHT22;49838;51.798;10.954;2023-08-12T03:01:03;27.10;31.10
64549;DHT22;49838;51.798;10.954;2023-08-12T03:03:31;27.10;31.10
64549;DHT22;49838;51.798;10.954;2023-08-12T03:05:59;27.00;31.10
64549;DHT22;49838;51.798;10.954;2023-08-12T03:08:27;27.00;31.10
64549;DHT22;49838;51.798;10.954;2023-08-12T03:10:57;27.00;31.20
64549;DHT22;49838;51.798;10.954;2023-08-12T03:13:25;26.90;31.00
64549;DHT22;49838;51.798;10.954;2023-08-12T03:15:53;27.00;31.00
64549;DHT22;49838;51.798;10.954;2023-08-12T03:18:20;27.00;31.00
64549;DHT22;49838;51.798;10.954;2023-08-12T03:20:47;27.00;31.00
64549;DHT22;49838;51.798;10.954;2023-08-12T03:23:16;27.10;31.00
64549;DHT22;49838;51.798;10.954;2023-08-12T03:25:46;27.10;31.00
64549;DHT22;49838;51.798;10.954;2023-08-12T03:28:13;27.10;31.00
64549;DHT22;49838;51.798;10.954;2023-08-12T03:30:41;27.10;31.20
64549;DHT22;49838;51.798;10.954;2023-08-12T03:33:08;27.10;31.00
64549;DHT22;49838;51.798;10.954;2023-08-12T03:35:35;27.10;31.00
64549;DHT22;49838;51.798;10.954;2023-08-12T03:38:03;27.10;31.10
64549;DHT22;49838;51.798;10.954;2023-08-12T03:40:31;27.10;31.10
64549;DHT22;49838;51.798;10.954;2023-08-12T03:42:59;27.10;31.20
64549;DHT22;49838;51.798;10.954;2023-08-12T03:45:26;27.10;31.20
64549;DHT22;49838;51.798;10.954;2023-08-12T03:47:53;27.10;31.20
64549;DHT22;49838;51.798;10.954;2023-08-12T03:50:21;27.10;31.20
64549;DHT22;49838;51.798;10.954;2023-08-12T03:52:48;27.10;31.60
64549;DHT22;49838;51.798;10.954;2023-08-12T03:55:15;27.10;31.60
64549;DHT22;49838;51.798;10.954;2023-08-12T03:57:44;27.10;31.60
64549;DHT22;49838;51.798;10.954;2023-08-12T04:00:12;27.20;32.00
64549;DHT22;49838;51.798;10.954;2023-08-12T04:02:39;27.10;32.10
64549;DHT22;49838;51.798;10.954;2023-08-12T04:05:07;27.20;32.30
64549;DHT22;49838;51.798;10.954;2023-08-12T04:07:35;27.30;32.30
64549;DHT22;49838;51.798;10.954;2023-08-12T04:10:03;27.40;32.20
64549;DHT22;49838;51.798;10.954;2023-08-12T04:12:30;27.60;32.10
64549;DHT22;49838;51.798;10.954;2023-08-12T04:14:59;27.80;31.90
64549;DHT22;49838;51.798;10.954;2023-08-12T04:17:30;28.10;32.00
64549;DHT22;49838;51.798;10.954;2023-08-12T04:19:57;28.30;31.80
64549;DHT22;49838;51.798;10.954;2023-08-12T04:22:25;28.50;32.00
64549;DHT22;49838;51.798;10.954;2023-08-12T04:24:52;28.60;32.10
64549;DHT22;49838;51.798;10.954;2023-08-12T04:27:19;28.70;32.10
64549;DHT22;49838;51.798;10.954;2023-08-12T04:29:47;28.70;32.10
64549;DHT22;49838;51.798;10.954;2023-08-12T04:32:16;28.70;32.10
64549;DHT22;49838;51.798;10.954;2023-08-12T04:34:44;28.80;32.30
64549;DHT22;49838;51.798;10.954;2023-08-12T04:37:12;28.80;32.20
64549;DHT22;49838;51.798;10.954;2023-08-12T04:39:39;28.90;32.30
64549;DHT22;49838;51.798;10.954;2023-08-12T04:42:07;29.00;32.40
64549;DHT22;49838;51.798;10.954;2023-08-12T04:44:34;29.10;32.30
64549;DHT22;49838;51.798;10.954;2023-08-12T04:47:02;29.20;32.40
64549;DHT22;49838;51.798;10.954;2023-08-12T04:49:30;29.40;32.50
64549;DHT22;49838;51.798;10.954;2023-08-12T04:51:58;29.40;32.50
64549;DHT22;49838;51.798;10.954;2023-08-12T04:54:25;29.50;32.70
64549;DHT22;49838;51.798;10.954;2023-08-12T04:56:52;29.60;32.50
64549;DHT22;49838;51.798;10.954;2023-08-12T04:59:20;29.80;32.40
64549;DHT22;49838;51.798;10.954;2023-08-12T05:01:47;29.80;32.40
64549;DHT22;49838;51.798;10.954;2023-08-12T05:04:14;30.00;32.30
64549;DHT22;49838;51.798;10.954;2023-08-12T05:06:43;30.10;32.30
64549;DHT22;49838;51.798;10.954;2023-08-12T05:09:10;30.10;32.20
64549;DHT22;49838;51.798;10.954;2023-08-12T05:11:38;30.10;32.30
64549;DHT22;49838;51.798;10.954;2023-08-12T05:14:05;30.10;32.40
64549;DHT22;49838;51.798;10.954;2023-08-12T05:16:34;30.10;32.70
64549;DHT22;49838;51.798;10.954;2023-08-12T05:19:01;29.90;32.70
64549;DHT22;49838;51.798;10.954;2023-08-12T05:21:28;29.80;32.90
64549;DHT22;49838;51.798;10.954;2023-08-12T05:23:57;29.80;33.10
64549;DHT22;49838;51.798;10.954;2023-08-12T05:26:24;29.70;33.20
64549;DHT22;49838;51.798;10.954;2023-08-12T05:28:52;29.60;33.50
64549;DHT22;49838;51.798;10.954;2023-08-12T05:31:19;29.50;33.70
64549;DHT22;49838;51.798;10.954;2023-08-12T05:33:46;29.30;34.20
64549;DHT22;49838;51.798;10.954;2023-08-12T05:36:14;29.20;34.50
64549;DHT22;49838;51.798;10.954;2023-08-12T05:38:41;29.00;35.00
64549;DHT22;49838;51.798;10.954;2023-08-12T05:41:11;28.70;35.20
64549;DHT22;49838;51.798;10.954;2023-08-12T05:43:39;28.50;35.90
64549;DHT22;49838;51.798;10.954;2023-08-12T05:46:08;28.30;36.20
64549;DHT22;49838;51.798;10.954;2023-08-12T05:48:36;28.10;36.70
64549;DHT22;49838;51.798;10.954;2023-08-12T05:51:03;27.90;36.80
64549;DHT22;49838;51.798;10.954;2023-08-12T05:53:31;27.80;36.80
64549;DHT22;49838;51.798;10.954;2023-08-12T05:55:58;27.70;36.90
64549;DHT22;49838;51.798;10.954;2023-08-12T05:58:27;27.70;36.60
64549;DHT22;49838;51.798;10.954;2023-08-12T06:00:55;27.60;36.80
64549;DHT22;49838;51.798;10.954;2023-08-12T06:03:22;27.50;36.60
64549;DHT22;49838;51.798;10.954;2023-08-12T06:05:50;27.50;36.10
64549;DHT22;49838;51.798;10.954;2023-08-12T06:08:18;27.50;36.10
64549;DHT22;49838;51.798;10.954;2023-08-12T06:10:45;27.50;36.40
64549;DHT22;49838;51.798;10.954;2023-08-12T06:13:17;27.50;36.40
64549;DHT22;49838;51.798;10.954;2023-08-12T06:15:46;27.40;36.50
64549;DHT22;49838;51.798;10.954;2023-08-12T06:18:13;27.40;35.90
64549;DHT22;49838;51.798;10.954;2023-08-12T06:20:41;27.50;35.70
64549;DHT22;49838;51.798;10.954;2023-08-12T06:23:09;27.70;35.50
64549;DHT22;49838;51.798;10.954;2023-08-12T06:25:37;27.80;35.30
64549;DHT22;49838;51.798;10.954;2023-08-12T06:28:04;27.90;35.00
64549;DHT22;49838;51.798;10.954;2023-08-12T06:30:34;28.00;34.90
64549;DHT22;49838;51.798;10.954;2023-08-12T06:33:02;28.10;34.90
64549;DHT22;49838;51.798;10.954;2023-08-12T06:35:30;28.10;34.90
64549;DHT22;49838;51.798;10.954;2023-08-12T06:38:01;28.10;34.80
64549;DHT22;49838;51.798;10.954;2023-08-12T06:40:28;28.10;34.80
64549;DHT22;49838;51.798;10.954;2023-08-12T06:42:56;28.10;34.90
64549;DHT22;49838;51.798;10.954;2023-08-12T06:45:23;28.10;34.90
64549;DHT22;49838;51.798;10.954;2023-08-12T06:47:51;28.10;34.80
64549;DHT22;49838;51.798;10.954;2023-08-12T06:50:19;28.10;34.80
64549;DHT22;49838;51.798;10.954;2023-08-12T06:52:47;28.20;34.90
64549;DHT22;49838;51.798;10.954;2023-08-12T06:55:14;28.20;34.70
64549;DHT22;49838;51.798;10.954;2023-08-12T06:57:42;28.30;34.90
64549;DHT22;49838;51.798;10.954;2023-08-12T07:00:09;28.30;35.70
64549;DHT22;49838;51.798;10.954;2023-08-12T07:02:37;28.20;35.70
64549;DHT22;49838;51.798;10.954;2023-08-12T07:05:08;28.20;35.90
64549;DHT22;49838;51.798;10.954;2023-08-12T07:07:37;28.20;35.40
64549;DHT22;49838;51.798;10.954;2023-08-12T07:10:04;28.30;35.30
64549;DHT22;49838;51.798;10.954;2023-08-12T07:12:33;28.30;35.30
64549;DHT22;49838;51.798;10.954;2023-08-12T07:15:01;28.30;35.30
64549;DHT22;49838;51.798;10.954;2023-08-12T07:17:28;28.30;35.40
64549;DHT22;49838;51.798;10.954;2023-08-12T07:19:56;28.30;35.50
64549;DHT22;49838;51.798;10.954;2023-08-12T07:22:25;28.20;35.30
64549;DHT22;49838;51.798;10.954;2023-08-12T07:24:54;28.20;35.30
64549;DHT22;49838;51.798;10.954;2023-08-12T07:27:21;28.20;35.30
64549;DHT22;49838;51.798;10.954;2023-08-12T07:29:49;28.20;35.30
64549;DHT22;49838;51.798;10.954;2023-08-12T07:32:17;28.30;35.40
64549;DHT22;49838;51.798;10.954;2023-08-12T07:34:44;28.30;35.50
64549;DHT22;49838;51.798;10.954;2023-08-12T07:37:12;28.20;35.50
64549;DHT22;49838;51.798;10.954;2023-08-12T07:39:39;28.20;35.40
64549;DHT22;49838;51.798;10.954;2023-08-12T07:42:08;28.30;35.50
64549;DHT22;49838;51.798;10.954;2023-08-12T07:44:35;28.20;35.50
64549;DHT22;49838;51.798;10.954;2023-08-12T07:47:02;28.30;35.40
64549;DHT22;49838;51.798;10.954;2023-08-12T07:49:30;28.30;35.40
64549;DHT22;49838;51.798;10.954;2023-08-12T07:51:57;28.50;35.40
64549;DHT22;49838;51.798;10.954;2023-08-12T07:54:24;28.40;35.40
64549;DHT22;49838;51.798;10.954;2023-08-12T07:56:52;28.40;35.60
64549;DHT22;49838;51.798;10.954;2023-08-12T07:59:21;28.40;35.50
64549;DHT22;49838;51.798;10.954;2023-08-12T08:01:48;28.40;35.60
64549;DHT22;49838;51.798;10.954;2023-08-12T08:04:15;28.40;35.90
64549;DHT22;49838;51.798;10.954;2023-08-12T08:06:43;28.30;35.90
64549;DHT22;49838;51.798;10.954;2023-08-12T08:09:10;28.30;36.00
64549;DHT22;49838;51.798;10.954;2023-08-12T08:11:37;28.30;36.20
64549;DHT22;49838;51.798;10.954;2023-08-12T08:14:05;28.30;36.20
64549;DHT22;49838;51.798;10.954;2023-08-12T08:16:33;28.30;36.20
64549;DHT22;49838;51.798;10.954;2023-08-12T08:19:01;28.30;36.10
64549;DHT22;49838;51.798;10.954;2023-08-12T08:21:28;28.40;36.10
64549;DHT22;49838;51.798;10.954;2023-08-12T08:23:55;28.30;36.10
64549;DHT22;49838;51.798;10.954;2023-08-12T08:26:23;28.40;36.20
64549;DHT22;49838;51.798;10.954;2023-08-12T08:28:51;28.40;36.20
64549;DHT22;49838;51.798;10.954;2023-08-12T08:31:18;28.40;36.20
64549;DHT22;49838;51.798;10.954;2023-08-12T08:33:47;28.40;36.20
64549;DHT22;49838;51.798;10.954;2023-08-12T08:36:15;28.40;36.10
64549;DHT22;49838;51.798;10.954;2023-08-12T08:38:44;28.50;36.10
64549;DHT22;49838;51.798;10.954;2023-08-12T08:41:11;28.60;35.90
64549;DHT22;49838;51.798;10.954;2023-08-12T08:43:39;28.80;35.80
64549;DHT22;49838;51.798;10.954;2023-08-12T08:46:09;28.90;35.80
64549;DHT22;49838;51.798;10.954;2023-08-12T08:48:41;29.00;35.70
64549;DHT22;49838;51.798;10.954;2023-08-12T08:51:10;29.00;35.50
64549;DHT22;49838;51.798;10.954;2023-08-12T08:53:38;29.20;35.50
64549;DHT22;49838;51.798;10.954;2023-08-12T08:56:07;29.20;35.30
64549;DHT22;49838;51.798;10.954;2023-08-12T08:58:37;29.30;35.30
64549;DHT22;49838;51.798;10.954;2023-08-12T09:01:05;29.30;35.40
64549;DHT22;49838;51.798;10.954;2023-08-12T09:03:33;29.30;35.50
64549;DHT22;49838;51.798;10.954;2023-08-12T09:06:04;29.30;35.50
64549;DHT22;49838;51.798;10.954;2023-08-12T09:08:33;29.40;35.50
64549;DHT22;49838;51.798;10.954;2023-08-12T09:11:01;29.40;35.40
64549;DHT22;49838;51.798;10.954;2023-08-12T09:13:29;29.40;35.40
64549;DHT22;49838;51.798;10.954;2023-08-12T09:15:57;29.50;35.50
64549;DHT22;49838;51.798;10.954;2023-08-12T09:18:25;29.50;35.50
64549;DHT22;49838;51.798;10.954;2023-08-12T09:20:52;29.50;35.50
64549;DHT22;49838;51.798;10.954;2023-08-12T09:23:20;29.50;35.50
64549;DHT22;49838;51.798;10.954;2023-08-12T09:25:49;29.50;35.50
64549;DHT22;49838;51.798;10.954;2023-08-12T09:28:16;29.60;35.40
64549;DHT22;49838;51.798;10.954;2023-08-12T09:30:44;29.70;35.50
64549;DHT22;49838;51.798;10.954;2023-08-12T09:33:18;29.80;35.50
64549;DHT22;49838;51.798;10.954;2023-08-12T09:46:58;30.70;35.70
64549;DHT22;49838;51.798;10.954;2023-08-12T09:49:25;31.20;35.90
64549;DHT22;49838;51.798;10.954;2023-08-12T09:51:53;31.50;35.90
64549;DHT22;49838;51.798;10.954;2023-08-12T09:54:25;31.70;35.90
64549;DHT22;49838;51.798;10.954;2023-08-12T09:56:54;32.00;35.90
64549;DHT22;49838;51.798;10.954;2023-08-12T09:59:24;32.20;35.90
64549;DHT22;49838;51.798;10.954;2023-08-12T10:01:58;32.40;35.90
64549;DHT22;49838;51.798;10.954;2023-08-12T10:04:27;32.50;36.00
64549;DHT22;49838;51.798;10.954;2023-08-12T10:06:58;32.50;36.10
64549;DHT22;49838;51.798;10.954;2023-08-12T10:09:26;32.70;36.20
64549;DHT22;49838;51.798;10.954;2023-08-12T10:11:54;32.80;36.00
64549;DHT22;49838;51.798;10.954;2023-08-12T10:14:23;33.00;36.00
64549;DHT22;49838;51.798;10.954;2023-08-12T10:16:52;33.20;36.00
64549;DHT22;49838;51.798;10.954;2023-08-12T10:19:25;33.40;36.00
64549;DHT22;49838;51.798;10.954;2023-08-12T10:21:54;33.60;36.10
64549;DHT22;49838;51.798;10.954;2023-08-12T10:24:23;33.70;36.20
64549;DHT22;49838;51.798;10.954;2023-08-12T10:26:53;33.90;36.20
64549;DHT22;49838;51.798;10.954;2023-08-12T10:29:20;33.90;36.20
64549;DHT22;49838;51.798;10.954;2023-08-12T10:31:53;34.10;36.30
64549;DHT22;49838;51.798;10.954;2023-08-12T10:34:20;34.10;36.30
64549;DHT22;49838;51.798;10.954;2023-08-12T10:36:50;34.30;36.40
64549;DHT22;49838;51.798;10.954;2023-08-12T10:39:21;34.40;36.60
64549;DHT22;49838;51.798;10.954;2023-08-12T10:41:51;34.70;36.90
64549;DHT22;49838;51.798;10.954;2023-08-12T10:44:21;35.00;37.00
64549;DHT22;49838;51.798;10.954;2023-08-12T10:46:53;35.40;37.20
64549;DHT22;49838;51.798;10.954;2023-08-12T10:49:21;36.00;37.40
64549;DHT22;49838;51.798;10.954;2023-08-12T10:51:49;36.70;37.60
64549;DHT22;49838;51.798;10.954;2023-08-12T10:54:22;37.40;37.70
64549;DHT22;49838;51.798;10.954;2023-08-12T10:57:10;38.10;37.20
64549;DHT22;49838;51.798;10.954;2023-08-12T10:59:54;38.50;36.50
64549;DHT22;49838;51.798;10.954;2023-08-12T11:02:23;38.70;35.50
64549;DHT22;49838;51.798;10.954;2023-08-12T11:04:55;38.70;35.20
64549;DHT22;49838;51.798;10.954;2023-08-12T11:07:32;38.50;34.60
64549;DHT22;49838;51.798;10.954;2023-08-12T11:10:10;38.50;34.50
64549;DHT22;49838;51.798;10.954;2023-08-12T11:12:39;38.30;34.20
64549;DHT22;49838;51.798;10.954;2023-08-12T11:15:08;38.10;34.10
64549;DHT22;49838;51.798;10.954;2023-08-12T11:17:37;37.90;33.90
64549;DHT22;49838;51.798;10.954;2023-08-12T11:20:06;37.50;33.60
64549;DHT22;49838;51.798;10.954;2023-08-12T11:22:37;37.30;33.80
64549;DHT22;49838;51.798;10.954;2023-08-12T11:25:09;37.10;33.90
64549;DHT22;49838;51.798;10.954;2023-08-12T11:27:39;36.90;33.90
64549;DHT22;49838;51.798;10.954;2023-08-12T11:30:07;36.80;34.00
64549;DHT22;49838;51.798;10.954;2023-08-12T11:32:36;36.70;34.00
64549;DHT22;49838;51.798;10.954;2023-08-12T11:35:04;36.60;34.00
64549;DHT22;49838;51.798;10.954;2023-08-12T11:37:34;36.70;34.10
64549;DHT22;49838;51.798;10.954;2023-08-12T11:40:04;36.80;34.00
64549;DHT22;49838;51.798;10.954;2023-08-12T11:42:35;37.00;34.10
64549;DHT22;49838;51.798;10.954;2023-08-12T11:45:02;37.20;34.10
64549;DHT22;49838;51.798;10.954;2023-08-12T11:47:31;37.20;34.00
64549;DHT22;49838;51.798;10.954;2023-08-12T11:49:58;37.20;33.90
64549;DHT22;49838;51.798;10.954;2023-08-12T11:52:28;37.20;34.00
64549;DHT22;49838;51.798;10.954;2023-08-12T11:54:55;37.20;34.10
64549;DHT22;49838;51.798;10.954;2023-08-12T11:57:25;37.10;34.20
64549;DHT22;49838;51.798;10.954;2023-08-12T11:59:53;37.20;34.30
64549;DHT22;49838;51.798;10.954;2023-08-12T12:02:26;37.30;34.30
64549;DHT22;49838;51.798;10.954;2023-08-12T12:04:53;37.40;34.30
64549;DHT22;49838;51.798;10.954;2023-08-12T12:07:21;37.40;34.20
64549;DHT22;49838;51.798;10.954;2023-08-12T12:09:50;37.40;34.20
64549;DHT22;49838;51.798;10.954;2023-08-12T12:12:21;37.20;34.10
64549;DHT22;49838;51.798;10.954;2023-08-12T12:14:51;37.10;34.20
64549;DHT22;49838;51.798;10.954;2023-08-12T12:17:20;36.90;34.30
64549;DHT22;49838;51.798;10.954;2023-08-12T12:19:51;36.90;34.30
64549;DHT22;49838;51.798;10.954;2023-08-12T12:22:19;36.90;34.40
64549;DHT22;49838;51.798;10.954;2023-08-12T12:24:46;36.90;34.40
64549;DHT22;49838;51.798;10.954;2023-08-12T12:27:46;36.90;34.40
64549;DHT22;49838;51.798;10.954;2023-08-12T12:30:46;36.90;34.40
64549;DHT22;49838;51.798;10.954;2023-08-12T12:33:13;37.00;34.30
64549;DHT22;49838;51.798;10.954;2023-08-12T12:35:40;37.10;34.30
64549;DHT22;49838;51.798;10.954;2023-08-12T12:38:08;37.10;34.30
64549;DHT22;49838;51.798;10.954;2023-08-12T12:40:36;37.10;34.20
64549;DHT22;49838;51.798;10.954;2023-08-12T12:43:04;37.00;34.10
64549;DHT22;49838;51.798;10.954;2023-08-12T12:45:33;36.90;34.20
64549;DHT22;49838;51.798;10.954;2023-08-12T12:48:02;36.70;34.30
64549;DHT22;49838;51.798;10.954;2023-08-12T12:50:30;36.70;34.30
64549;DHT22;49838;51.798;10.954;2023-08-12T12:52:57;36.80;34.40
64549;DHT22;49838;51.798;10.954;2023-08-12T12:55:24;36.80;34.30
64549;DHT22;49838;51.798;10.954;2023-08-12T12:57:52;37.00;34.20
64549;DHT22;49838;51.798;10.954;2023-08-12T13:00:19;37.20;34.20
64549;DHT22;49838;51.798;10.954;2023-08-12T13:02:46;37.40;34.10
64549;DHT22;49838;51.798;10.954;2023-08-12T13:05:15;37.60;34.10
64549;DHT22;49838;51.798;10.954;2023-08-12T13:07:43;37.70;34.00
64549;DHT22;49838;51.798;10.954;2023-08-12T13:10:11;37.90;34.00
64549;DHT22;49838;51.798;10.954;2023-08-12T13:12:38;37.90;33.80
64549;DHT22;49838;51.798;10.954;2023-08-12T13:15:05;37.90;33.80
64549;DHT22;49838;51.798;10.954;2023-08-12T13:17:35;38.00;33.80
64549;DHT22;49838;51.798;10.954;2023-08-12T13:20:10;38.00;33.80
64549;DHT22;49838;51.798;10.954;2023-08-12T13:22:39;37.90;33.60
64549;DHT22;49838;51.798;10.954;2023-08-12T13:25:07;37.80;33.70
64549;DHT22;49838;51.798;10.954;2023-08-12T13:27:34;37.80;33.80
64549;DHT22;49838;51.798;10.954;2023-08-12T13:30:02;37.90;33.80
64549;DHT22;49838;51.798;10.954;2023-08-12T13:32:30;38.00;33.80
64549;DHT22;49838;51.798;10.954;2023-08-12T13:34:57;38.00;33.80
64549;DHT22;49838;51.798;10.954;2023-08-12T13:37:25;38.10;33.70
64549;DHT22;49838;51.798;10.954;2023-08-12T13:39:59;38.10;33.50
64549;DHT22;49838;51.798;10.954;2023-08-12T13:42:29;38.00;33.50
64549;DHT22;49838;51.798;10.954;2023-08-12T13:45:05;38.00;33.50
64549;DHT22;49838;51.798;10.954;2023-08-12T13:47:33;37.80;33.50
64549;DHT22;49838;51.798;10.954;2023-08-12T13:50:03;37.40;33.50
64549;DHT22;49838;51.798;10.954;2023-08-12T13:52:30;37.20;33.60
64549;DHT22;49838;51.798;10.954;2023-08-12T13:54:59;37.00;33.80
64549;DHT22;49838;51.798;10.954;2023-08-12T13:57:26;36.80;33.80
64549;DHT22;49838;51.798;10.954;2023-08-12T13:59:54;36.70;33.80
64549;DHT22;49838;51.798;10.954;2023-08-12T14:02:21;36.60;33.80
64549;DHT22;49838;51.798;10.954;2023-08-12T14:04:51;36.50;33.80
64549;DHT22;49838;51.798;10.954;2023-08-12T14:07:19;36.30;33.80
64549;DHT22;49838;51.798;10.954;2023-08-12T14:09:47;36.20;33.90
64549;DHT22;49838;51.798;10.954;2023-08-12T14:12:16;36.00;34.00
64549;DHT22;49838;51.798;10.954;2023-08-12T14:14:46;35.80;33.90
64549;DHT22;49838;51.798;10.954;2023-08-12T14:17:18;35.60;33.90
64549;DHT22;49838;51.798;10.954;2023-08-12T14:19:49;35.60;34.00
64549;DHT22;49838;51.798;10.954;2023-08-12T14:22:17;35.50;34.00
64549;DHT22;49838;51.798;10.954;2023-08-12T14:24:45;35.40;34.10
64549;DHT22;49838;51.798;10.954;2023-08-12T14:27:18;35.30;34.00
64549;DHT22;49838;51.798;10.954;2023-08-12T14:33:27;35.30;34.10
64549;DHT22;49838;51.798;10.954;2023-08-12T14:35:59;35.10;34.10
64549;DHT22;49838;51.798;10.954;2023-08-12T14:38:26;35.10;34.20
64549;DHT22;49838;51.798;10.954;2023-08-12T14:40:54;35.00;34.20
64549;DHT22;49838;51.798;10.954;2023-08-12T14:43:23;34.90;34.20
64549;DHT22;49838;51.798;10.954;2023-08-12T14:45:50;34.90;34.20
64549;DHT22;49838;51.798;10.954;2023-08-12T14:48:18;34.80;34.30
64549;DHT22;49838;51.798;10.954;2023-08-12T14:50:45;34.70;34.30
64549;DHT22;49838;51.798;10.954;2023-08-12T14:53:15;34.70;34.40
64549;DHT22;49838;51.798;10.954;2023-08-12T14:56:22;34.60;34.50
64549;DHT22;49838;51.798;10.954;2023-08-12T15:02:07;34.50;34.50
64549;DHT22;49838;51.798;10.954;2023-08-12T15:04:37;34.60;34.50
64549;DHT22;49838;51.798;10.954;2023-08-12T15:07:05;34.60;34.40
64549;DHT22;49838;51.798;10.954;2023-08-12T15:09:32;34.60;34.40
64549;DHT22;49838;51.798;10.954;2023-08-12T15:11:59;34.60;34.60
64549;DHT22;49838;51.798;10.954;2023-08-12T15:14:27;34.60;34.50
64549;DHT22;49838;51.798;10.954;2023-08-12T15:16:54;34.60;34.80
64549;DHT22;49838;51.798;10.954;2023-08-12T15:19:23;34.50;34.60
64549;DHT22;49838;51.798;10.954;2023-08-12T15:21:50;34.60;34.70
64549;DHT22;49838;51.798;10.954;2023-08-12T15:24:17;34.60;34.80
64549;DHT22;49838;51.798;10.954;2023-08-12T15:26:45;34.50;34.70
64549;DHT22;49838;51.798;10.954;2023-08-12T15:29:12;34.50;34.80
64549;DHT22;49838;51.798;10.954;2023-08-12T15:31:39;34.40;34.90
64549;DHT22;49838;51.798;10.954;2023-08-12T15:34:09;34.50;34.90
64549;DHT22;49838;51.798;10.954;2023-08-12T15:36:38;34.40;35.10
64549;DHT22;49838;51.798;10.954;2023-08-12T15:39:06;34.50;34.90
64549;DHT22;49838;51.798;10.954;2023-08-12T15:41:34;34.50;35.00